createdAt,value
2023-02-13T00:00:54.869Z,98143.53
2023-02-13T00:03:22.808Z,98125.66
2023-02-13T00:05:50.491Z,98133.59
2023-02-13T00:08:18.339Z,98134.66
2023-02-13T00:10:46.102Z,98134.91
2023-02-13T00:13:16.502Z,98117.31
2023-02-13T00:15:44.414Z,98140.25
2023-02-13T00:18:12.361Z,98136.44
2023-02-13T00:20:40.074Z,98136.34
2023-02-13T00:23:07.609Z,98128.56
2023-02-13T00:25:35.166Z,98134.44
2023-02-13T00:28:02.731Z,98124.94
2023-02-13T00:30:30.461Z,98108.47
2023-02-13T00:32:58.036Z,98119.81
2023-02-13T00:35:25.596Z,98125.41
2023-02-13T00:37:53.478Z,98098.22
2023-02-13T00:40:25.481Z,98111.63
2023-02-13T00:42:53.065Z,98115.66
2023-02-13T00:45:20.641Z,98103.75
2023-02-13T00:47:48.252Z,98101.31
2023-02-13T00:50:15.953Z,98109.00
2023-02-13T00:52:43.605Z,98100.63
2023-02-13T00:55:13.438Z,98097.41
2023-02-13T00:57:40.980Z,98103.31
2023-02-13T01:00:09.127Z,98108.66
2023-02-13T01:02:36.762Z,98106.53
2023-02-13T01:05:04.679Z,98105.81
2023-02-13T01:07:32.289Z,98111.63
2023-02-13T01:09:59.915Z,98097.97
2023-02-13T01:12:27.642Z,98115.53
2023-02-13T01:14:55.417Z,98110.09
2023-02-13T01:17:23.104Z,98110.94
2023-02-13T01:19:50.737Z,98106.63
2023-02-13T01:22:18.438Z,98108.38
2023-02-13T01:24:46.032Z,98105.72
2023-02-13T01:27:13.733Z,98117.66
2023-02-13T01:29:41.336Z,98114.69
2023-02-13T01:32:09.158Z,98106.47
2023-02-13T01:34:36.762Z,98111.19
2023-02-13T01:37:04.984Z,98115.38
2023-02-13T01:39:32.765Z,98115.47
2023-02-13T01:42:00.399Z,98122.34
2023-02-13T01:44:48.103Z,98122.53
2023-02-13T01:47:45.948Z,98116.00
2023-02-13T01:50:26.326Z,98119.00
2023-02-13T01:53:05.428Z,98119.47
2023-02-13T01:55:35.277Z,98108.56
2023-02-13T01:58:14.230Z,98105.47
2023-02-13T02:00:43.884Z,98108.75
2023-02-13T02:03:15.878Z,98103.53
2023-02-13T02:05:43.846Z,98096.41
2023-02-13T02:08:14.596Z,98115.22
2023-02-13T02:10:42.640Z,98106.63
2023-02-13T02:13:19.009Z,98113.63
2023-02-13T02:15:48.289Z,98103.41
2023-02-13T02:18:18.398Z,98119.47
2023-02-13T02:21:10.475Z,98103.34
2023-02-13T02:24:19.499Z,98104.78
2023-02-13T02:27:08.749Z,98110.41
2023-02-13T02:29:51.840Z,98099.84
2023-02-13T02:32:43.030Z,98099.56
2023-02-13T02:35:34.882Z,98103.09
2023-02-13T02:38:10.568Z,98101.50
2023-02-13T02:41:02.589Z,98100.09
2023-02-13T02:43:48.277Z,98111.75
2023-02-13T02:46:23.326Z,98100.97
2023-02-13T02:49:19.646Z,98107.84
2023-02-13T02:52:12.857Z,98106.28
2023-02-13T02:55:08.621Z,98105.03
2023-02-13T02:58:15.250Z,98105.78
2023-02-13T03:01:02.921Z,98113.84
2023-02-13T03:03:49.861Z,98107.25
2023-02-13T03:06:34.836Z,98105.63
2023-02-13T03:09:25.555Z,98106.19
2023-02-13T03:12:14.487Z,98108.16
2023-02-13T03:14:43.031Z,98108.56
2023-02-13T03:17:36.025Z,98106.19
2023-02-13T03:20:21.936Z,98112.16
2023-02-13T03:23:01.553Z,98110.97
2023-02-13T03:25:58.658Z,98104.09
2023-02-13T03:28:47.596Z,98108.22
2023-02-13T03:31:27.202Z,98087.16
2023-02-13T03:34:10.558Z,98109.53
2023-02-13T03:37:12.026Z,98103.44
2023-02-13T03:40:01.809Z,98103.50
2023-02-13T03:42:54.406Z,98091.94
2023-02-13T03:45:48.059Z,98098.75
2023-02-13T03:48:37.966Z,98088.88
2023-02-13T03:51:09.665Z,98092.09
2023-02-13T03:53:40.827Z,98088.75
2023-02-13T03:56:29.293Z,98095.94
2023-02-13T03:59:17.540Z,98100.53
2023-02-13T04:02:01.610Z,98092.94
2023-02-13T04:04:40.684Z,98091.63
2023-02-13T04:07:29.815Z,98079.16
2023-02-13T04:10:06.016Z,98091.59
2023-02-13T04:13:01.466Z,98095.66
2023-02-13T04:15:46.423Z,98084.38
2023-02-13T04:18:19.944Z,98086.25
2023-02-13T04:20:47.786Z,98090.13
2023-02-13T04:23:16.719Z,98093.84
2023-02-13T04:25:48.785Z,98096.81
2023-02-13T04:28:16.572Z,98098.59
2023-02-13T04:30:44.345Z,98090.44
2023-02-13T04:33:12.112Z,98075.44
2023-02-13T04:35:39.817Z,98071.78
2023-02-13T04:38:07.488Z,98073.13
2023-02-13T04:40:35.125Z,98084.56
2023-02-13T04:43:02.712Z,98080.91
2023-02-13T04:45:30.241Z,98076.94
2023-02-13T04:47:59.659Z,98090.75
2023-02-13T04:50:27.334Z,98081.31
2023-02-13T04:52:56.501Z,98079.84
2023-02-13T04:55:28.499Z,98076.75
2023-02-13T04:57:56.625Z,98075.97
2023-02-13T05:00:27.462Z,98077.47
2023-02-13T05:03:00.794Z,98073.59
2023-02-13T05:05:28.394Z,98060.66
2023-02-13T05:07:56.014Z,98069.13
2023-02-13T05:10:23.662Z,98085.31
2023-02-13T05:12:51.332Z,98055.56
2023-02-13T05:15:19.124Z,98075.38
2023-02-13T05:17:47.568Z,98067.56
2023-02-13T05:20:15.737Z,98070.19
2023-02-13T05:23:09.829Z,98083.16
2023-02-13T05:25:39.693Z,98070.69
2023-02-13T05:28:27.780Z,98067.13
2023-02-13T05:30:55.626Z,98060.13
2023-02-13T05:33:23.544Z,98070.53
2023-02-13T05:35:51.228Z,98072.56
2023-02-13T05:38:19.004Z,98071.19
2023-02-13T05:40:46.578Z,98069.13
2023-02-13T05:43:14.206Z,98060.66
2023-02-13T05:45:41.864Z,98069.41
2023-02-13T05:48:09.399Z,98066.28
2023-02-13T05:50:37.128Z,98059.31
2023-02-13T05:53:04.703Z,98072.19
2023-02-13T05:55:32.398Z,98062.69
2023-02-13T05:58:00.078Z,98066.56
2023-02-13T06:00:27.600Z,98052.03
2023-02-13T06:02:55.349Z,98069.00
2023-02-13T06:05:22.971Z,98044.34
2023-02-13T06:07:50.820Z,98064.25
2023-02-13T06:10:19.333Z,98060.34
2023-02-13T06:12:47.078Z,98067.50
2023-02-13T06:15:14.755Z,98066.03
2023-02-13T06:17:42.340Z,98073.47
2023-02-13T06:20:10.355Z,98047.09
2023-02-13T06:22:37.952Z,98066.31
2023-02-13T06:25:05.996Z,98070.38
2023-02-13T06:27:33.730Z,98066.91
2023-02-13T06:30:01.319Z,98058.94
2023-02-13T06:32:29.588Z,98062.78
2023-02-13T06:34:57.146Z,98049.78
2023-02-13T06:37:24.913Z,98051.25
2023-02-13T06:39:52.459Z,98054.19
2023-02-13T06:42:20.747Z,98047.56
2023-02-13T06:44:48.552Z,98052.16
2023-02-13T06:47:16.245Z,98046.09
2023-02-13T06:49:43.932Z,98036.78
2023-02-13T06:52:11.498Z,98037.81
2023-02-13T06:54:47.162Z,98030.78
2023-02-13T06:57:16.568Z,98025.53
2023-02-13T06:59:44.312Z,98017.72
2023-02-13T07:02:13.139Z,98023.59
2023-02-13T07:04:41.040Z,98022.44
2023-02-13T07:07:08.596Z,98024.13
2023-02-13T07:09:37.522Z,98019.16
2023-02-13T07:12:05.991Z,98020.94
2023-02-13T07:14:33.674Z,98027.09
2023-02-13T07:17:01.238Z,98015.81
2023-02-13T07:19:28.890Z,98012.50
2023-02-13T07:21:56.476Z,97995.63
2023-02-13T07:24:24.171Z,98004.47
2023-02-13T07:26:51.881Z,97999.72
2023-02-13T07:29:19.541Z,97992.47
2023-02-13T07:31:47.215Z,97997.81
2023-02-13T07:34:14.876Z,98000.59
2023-02-13T07:36:42.453Z,97988.47
2023-02-13T07:39:10.130Z,97992.47
2023-02-13T07:41:37.652Z,97989.16
2023-02-13T07:44:07.816Z,97999.66
2023-02-13T07:46:35.579Z,97997.91
2023-02-13T07:49:03.147Z,97960.59
2023-02-13T07:51:30.672Z,97981.22
2023-02-13T07:53:58.284Z,97992.09
2023-02-13T07:56:25.892Z,97977.91
2023-02-13T07:58:53.483Z,97973.81
2023-02-13T08:01:21.118Z,97958.47
2023-02-13T08:03:53.519Z,97977.06
2023-02-13T08:06:23.003Z,97974.94
2023-02-13T08:09:10.515Z,97966.78
2023-02-13T08:11:55.211Z,97964.94
2023-02-13T08:14:25.027Z,97966.03
2023-02-13T08:16:54.281Z,97965.16
2023-02-13T08:19:21.831Z,97958.47
2023-02-13T08:21:49.485Z,97957.16
2023-02-13T08:24:17.147Z,97950.06
2023-02-13T08:26:44.880Z,97942.13
2023-02-13T08:29:12.557Z,97951.63
2023-02-13T08:31:40.195Z,97952.22
2023-02-13T08:34:07.952Z,97944.72
2023-02-13T08:36:35.512Z,97950.16
2023-02-13T08:39:03.163Z,97933.88
2023-02-13T08:41:30.744Z,97932.78
2023-02-13T08:43:58.412Z,97929.53
2023-02-13T08:46:25.999Z,97936.75
2023-02-13T08:48:53.705Z,97926.91
2023-02-13T08:51:21.545Z,97918.53
2023-02-13T08:53:49.126Z,97922.16
2023-02-13T08:56:17.182Z,97917.91
2023-02-13T08:58:45.083Z,97914.84
2023-02-13T09:01:12.872Z,97908.44
2023-02-13T09:03:40.544Z,97897.81
2023-02-13T09:06:08.381Z,97914.13
2023-02-13T09:08:36.745Z,97905.72
2023-02-13T09:11:07.849Z,97900.50
2023-02-13T09:13:37.441Z,97891.53
2023-02-13T09:16:06.962Z,97891.31
2023-02-13T09:18:35.840Z,97886.91
2023-02-13T09:21:09.048Z,97885.63
2023-02-13T09:23:40.468Z,97883.38
2023-02-13T09:26:13.441Z,97878.19
2023-02-13T09:28:41.619Z,97883.09
2023-02-13T09:31:11.693Z,97874.56
2023-02-13T09:33:39.624Z,97864.13
2023-02-13T09:36:25.738Z,97862.25
2023-02-13T09:38:55.449Z,97864.69
2023-02-13T09:41:28.521Z,97862.38
2023-02-13T09:44:03.382Z,97854.88
2023-02-13T09:46:37.333Z,97861.56
2023-02-13T09:49:10.530Z,97869.94
2023-02-13T09:51:38.464Z,97864.84
2023-02-13T09:54:08.133Z,97870.22
2023-02-13T09:57:00.797Z,97851.63
2023-02-13T09:59:28.719Z,97851.88
2023-02-13T10:02:03.038Z,97848.66
2023-02-13T10:04:40.660Z,97845.22
2023-02-13T10:07:38.320Z,97835.91
2023-02-13T10:10:14.831Z,97852.50
2023-02-13T10:13:07.533Z,97840.84
2023-02-13T10:15:42.139Z,97840.97
2023-02-13T10:18:45.457Z,97839.44
2023-02-13T10:21:15.466Z,97830.78
2023-02-13T10:23:51.926Z,97837.66
2023-02-13T10:26:22.461Z,97838.06
2023-02-13T10:29:25.167Z,97825.00
2023-02-13T10:31:56.173Z,97825.22
2023-02-13T10:34:27.821Z,97827.31
2023-02-13T10:36:56.074Z,97817.34
2023-02-13T10:39:26.829Z,97817.66
2023-02-13T10:42:13.855Z,97825.88
2023-02-13T10:45:25.829Z,97820.31
2023-02-13T10:47:53.388Z,97816.19
2023-02-13T10:50:48.718Z,97826.25
2023-02-13T10:53:37.447Z,97818.13
2023-02-13T10:56:18.673Z,97821.22
2023-02-13T10:59:18.221Z,97816.25
2023-02-13T11:01:54.919Z,97827.13
2023-02-13T11:04:22.915Z,97823.50
2023-02-13T11:06:58.128Z,97822.44
2023-02-13T11:09:26.523Z,97826.53
2023-02-13T11:11:54.531Z,97820.69
2023-02-13T11:14:27.351Z,97800.03
2023-02-13T11:16:58.154Z,97830.00
2023-02-13T11:19:54.229Z,97822.94
2023-02-13T11:22:45.587Z,97824.63
2023-02-13T11:25:30.381Z,97820.69
2023-02-13T11:28:21.311Z,97821.03
2023-02-13T11:30:49.401Z,97822.81
2023-02-13T11:33:20.120Z,97815.75
2023-02-13T11:35:48.312Z,97814.31
2023-02-13T11:38:18.943Z,97823.44
2023-02-13T11:41:08.268Z,97805.47
2023-02-13T11:43:54.337Z,97813.69
2023-02-13T11:46:26.957Z,97820.91
2023-02-13T11:49:07.028Z,97809.94
2023-02-13T11:51:49.789Z,97801.38
2023-02-13T11:54:32.270Z,97814.69
2023-02-13T11:57:05.462Z,97804.94
2023-02-13T11:59:42.257Z,97806.13
2023-02-13T12:02:30.970Z,97802.94
2023-02-13T12:05:21.977Z,97815.16
2023-02-13T12:07:50.145Z,97807.41
2023-02-13T12:10:27.105Z,97798.22
2023-02-13T12:13:18.276Z,97811.09
2023-02-13T12:15:48.142Z,97798.16
2023-02-13T12:18:51.176Z,97807.94
2023-02-13T12:21:29.311Z,97808.81
2023-02-13T12:24:04.066Z,97805.19
2023-02-13T12:26:38.303Z,97797.84
2023-02-13T12:29:30.235Z,97806.16
2023-02-13T12:32:31.109Z,97804.09
2023-02-13T12:35:05.000Z,97801.63
2023-02-13T12:37:45.463Z,97802.38
2023-02-13T12:40:39.591Z,97798.66
2023-02-13T12:43:07.080Z,97803.41
2023-02-13T12:45:43.591Z,97769.97
2023-02-13T12:48:33.038Z,97800.19
2023-02-13T12:51:25.352Z,97800.22
2023-02-13T12:54:04.921Z,97791.84
2023-02-13T12:56:35.291Z,97793.47
2023-02-13T12:59:21.494Z,97790.69
2023-02-13T13:02:28.142Z,97797.88
2023-02-13T13:05:18.280Z,97796.88
2023-02-13T13:08:04.296Z,97780.03
2023-02-13T13:10:31.882Z,97800.78
2023-02-13T13:13:32.026Z,97797.09
2023-02-13T13:16:05.483Z,97791.56
2023-02-13T13:18:57.590Z,97802.09
2023-02-13T13:21:40.208Z,97791.09
2023-02-13T13:24:18.745Z,97802.81
2023-02-13T13:26:50.127Z,97803.44
2023-02-13T13:29:26.499Z,97790.81
2023-02-13T13:32:02.622Z,97799.09
2023-02-13T13:34:32.035Z,97796.84
2023-02-13T13:37:14.541Z,97797.44
2023-02-13T13:39:55.682Z,97802.16
2023-02-13T13:42:36.050Z,97800.78
2023-02-13T13:45:26.193Z,97788.16
2023-02-13T13:48:21.270Z,97793.03
2023-02-13T13:50:50.045Z,97791.41
2023-02-13T13:53:20.718Z,97789.19
2023-02-13T13:55:50.948Z,97797.16
2023-02-13T13:58:33.256Z,97794.00
2023-02-13T14:01:32.402Z,97797.63
2023-02-13T14:04:04.320Z,97792.81
2023-02-13T14:06:44.032Z,97799.88
2023-02-13T14:09:40.229Z,97800.84
2023-02-13T14:12:31.052Z,97805.78
2023-02-13T14:15:00.608Z,97806.09
2023-02-13T14:17:46.737Z,97802.75
2023-02-13T14:20:43.568Z,97798.41
2023-02-13T14:23:36.471Z,97813.94
2023-02-13T14:26:16.194Z,97804.31
2023-02-13T14:28:50.616Z,97807.38
2023-02-13T14:31:36.055Z,97810.22
2023-02-13T14:34:06.481Z,97797.75
2023-02-13T14:36:40.087Z,97803.66
2023-02-13T14:39:09.324Z,97808.16
2023-02-13T14:41:51.898Z,97811.63
2023-02-13T14:44:40.540Z,97802.09
2023-02-13T14:47:45.840Z,97799.22
2023-02-13T14:50:20.988Z,97796.47
2023-02-13T14:52:50.142Z,97790.84
2023-02-13T14:55:21.217Z,97789.09
2023-02-13T14:57:58.242Z,97788.22
2023-02-13T15:00:28.632Z,97794.13
2023-02-13T15:03:16.514Z,97792.22
2023-02-13T15:05:52.073Z,97792.63
2023-02-13T15:08:34.796Z,97792.53
2023-02-13T15:11:02.557Z,97786.25
2023-02-13T15:13:36.233Z,97794.13
2023-02-13T15:16:14.947Z,97799.03
2023-02-13T15:18:52.851Z,97799.34
2023-02-13T15:21:24.774Z,97796.25
2023-02-13T15:23:58.375Z,97798.91
2023-02-13T15:26:29.133Z,97809.38
2023-02-13T15:29:25.904Z,97800.72
2023-02-13T15:31:58.327Z,97803.88
2023-02-13T15:34:35.018Z,97818.78
2023-02-13T15:37:03.434Z,97805.75
2023-02-13T15:39:32.729Z,97797.06
2023-02-13T15:42:03.205Z,97800.66
2023-02-13T15:44:35.810Z,97792.66
2023-02-13T15:47:08.920Z,97792.03
2023-02-13T15:49:44.810Z,97782.88
2023-02-13T15:52:24.297Z,97779.97
2023-02-13T15:54:56.854Z,97795.63
2023-02-13T15:57:27.239Z,97785.44
2023-02-13T15:59:59.272Z,97764.75
2023-02-13T16:02:40.673Z,97778.72
2023-02-13T16:05:13.180Z,97771.22
2023-02-13T16:07:53.245Z,97801.81
2023-02-13T16:10:33.905Z,97801.00
2023-02-13T16:13:17.035Z,97788.94
2023-02-13T16:15:45.017Z,97785.66
2023-02-13T16:18:20.387Z,97789.44
2023-02-13T16:20:56.807Z,97803.72
2023-02-13T16:23:24.966Z,97794.91
2023-02-13T16:25:53.346Z,97792.06
2023-02-13T16:28:24.583Z,97791.09
2023-02-13T16:31:01.258Z,97786.53
2023-02-13T16:33:31.154Z,97785.03
2023-02-13T16:36:18.495Z,97787.38
2023-02-13T16:38:48.210Z,97785.31
2023-02-13T16:41:29.027Z,97791.00
2023-02-13T16:44:01.738Z,97784.97
2023-02-13T16:46:40.386Z,97788.44
2023-02-13T16:49:11.333Z,97791.56
2023-02-13T16:51:49.643Z,97804.88
2023-02-13T16:54:29.591Z,97778.47
2023-02-13T16:57:07.569Z,97797.22
2023-02-13T16:59:56.131Z,97800.91
2023-02-13T17:02:25.325Z,97804.84
2023-02-13T17:05:22.236Z,97803.53
2023-02-13T17:07:53.346Z,97806.78
2023-02-13T17:10:28.549Z,97805.22
2023-02-13T17:12:59.185Z,97795.47
2023-02-13T17:15:28.996Z,97802.78
2023-02-13T17:17:56.795Z,97794.13
2023-02-13T17:20:27.593Z,97763.84
2023-02-13T17:22:57.551Z,97802.25
2023-02-13T17:25:31.374Z,97793.88
2023-02-13T17:28:21.366Z,97797.25
2023-02-13T17:30:54.713Z,97802.56
2023-02-13T17:33:31.255Z,97808.06
2023-02-13T17:35:59.080Z,97801.75
2023-02-13T17:38:26.734Z,97810.19
2023-02-13T17:40:54.874Z,97813.38
2023-02-13T17:43:23.101Z,97817.31
2023-02-13T17:45:50.960Z,97809.63
2023-02-13T17:48:18.766Z,97819.13
2023-02-13T17:50:47.267Z,97808.59
2023-02-13T17:53:25.265Z,97808.06
2023-02-13T17:55:53.310Z,97815.97
2023-02-13T17:58:21.013Z,97811.25
2023-02-13T18:00:48.725Z,97819.38
2023-02-13T18:03:16.768Z,97815.13
2023-02-13T18:05:48.866Z,97821.19
2023-02-13T18:08:17.318Z,97819.84
2023-02-13T18:10:44.882Z,97812.22
2023-02-13T18:13:12.593Z,97807.41
2023-02-13T18:15:43.318Z,97808.56
2023-02-13T18:18:12.308Z,97805.28
2023-02-13T18:20:39.832Z,97803.88
2023-02-13T18:23:09.052Z,97797.69
2023-02-13T18:25:37.066Z,97791.09
2023-02-13T18:28:04.621Z,97795.03
2023-02-13T18:30:32.189Z,97795.84
2023-02-13T18:32:59.881Z,97795.56
2023-02-13T18:35:27.751Z,97791.09
2023-02-13T18:37:55.332Z,97789.41
2023-02-13T18:40:22.954Z,97795.91
2023-02-13T18:42:51.284Z,97801.13
2023-02-13T18:45:19.213Z,97796.78
2023-02-13T18:47:46.758Z,97785.19
2023-02-13T18:50:15.614Z,97790.78
2023-02-13T18:52:43.192Z,97791.00
2023-02-13T18:55:11.065Z,97789.69
2023-02-13T18:57:43.679Z,97786.91
2023-02-13T19:00:12.971Z,97785.19
2023-02-13T19:02:40.622Z,97785.44
2023-02-13T19:05:09.080Z,97781.47
2023-02-13T19:07:37.167Z,97784.94
2023-02-13T19:10:04.945Z,97777.00
2023-02-13T19:12:32.722Z,97781.19
2023-02-13T19:15:00.297Z,97778.56
2023-02-13T19:17:27.953Z,97772.25
2023-02-13T19:19:56.079Z,97769.84
2023-02-13T19:22:23.689Z,97769.03
2023-02-13T19:24:51.467Z,97770.31
2023-02-13T19:27:19.387Z,97769.53
2023-02-13T19:29:47.800Z,97765.63
2023-02-13T19:32:16.216Z,97765.13
2023-02-13T19:34:43.943Z,97763.72
2023-02-13T19:37:11.523Z,97764.16
2023-02-13T19:39:39.332Z,97767.72
2023-02-13T19:42:06.872Z,97779.50
2023-02-13T19:44:34.500Z,97769.19
2023-02-13T19:47:02.076Z,97774.28
2023-02-13T19:49:29.697Z,97760.41
2023-02-13T19:51:57.263Z,97751.69
2023-02-13T19:54:24.834Z,97762.09
2023-02-13T19:56:54.965Z,97766.34
2023-02-13T19:59:22.593Z,97773.56
2023-02-13T20:01:50.149Z,97756.19
2023-02-13T20:04:17.842Z,97776.63
2023-02-13T20:06:45.444Z,97772.88
2023-02-13T20:09:14.237Z,97770.03
2023-02-13T20:11:42.663Z,97777.59
2023-02-13T20:14:15.255Z,97773.66
2023-02-13T20:16:45.906Z,97780.31
2023-02-13T20:19:14.506Z,97772.22
2023-02-13T20:21:43.049Z,97766.16
2023-02-13T20:24:11.371Z,97769.31
2023-02-13T20:26:40.191Z,97773.25
2023-02-13T20:29:08.272Z,97760.91
2023-02-13T20:31:36.886Z,97772.22
2023-02-13T20:34:06.885Z,97778.06
2023-02-13T20:36:35.115Z,97779.84
2023-02-13T20:39:05.906Z,97786.94
2023-02-13T20:41:35.601Z,97781.91
2023-02-13T20:44:06.568Z,97782.66
2023-02-13T20:46:36.669Z,97790.06
2023-02-13T20:49:04.465Z,97787.13
2023-02-13T20:51:32.098Z,97795.31
2023-02-13T20:54:00.694Z,97797.94
2023-02-13T20:56:28.936Z,97800.00
2023-02-13T20:58:58.956Z,97790.16
2023-02-13T21:01:35.752Z,97786.94
2023-02-13T21:04:03.742Z,97785.56
2023-02-13T21:06:34.282Z,97790.34
2023-02-13T21:09:03.010Z,97794.50
2023-02-13T21:11:31.928Z,97790.75
2023-02-13T21:13:59.493Z,97790.44
2023-02-13T21:16:30.267Z,97789.34
2023-02-13T21:19:00.429Z,97791.91
2023-02-13T21:21:31.601Z,97789.31
2023-02-13T21:24:02.468Z,97784.59
2023-02-13T21:26:30.994Z,97782.69
2023-02-13T21:28:58.918Z,97782.13
2023-02-13T21:31:36.091Z,97784.88
2023-02-13T21:34:13.472Z,97785.16
2023-02-13T21:36:41.232Z,97783.91
2023-02-13T21:39:11.287Z,97782.22
2023-02-13T21:41:43.814Z,97788.03
2023-02-13T21:44:16.202Z,97778.06
2023-02-13T21:46:45.334Z,97795.81
2023-02-13T21:49:16.112Z,97780.72
2023-02-13T21:51:44.372Z,97782.28
2023-02-13T21:54:12.630Z,97786.00
2023-02-13T21:56:42.795Z,97788.88
2023-02-13T21:59:14.914Z,97789.09
2023-02-13T22:01:47.603Z,97786.31
2023-02-13T22:04:15.570Z,97784.50
2023-02-13T22:06:43.465Z,97783.53
2023-02-13T22:09:13.442Z,97783.03
2023-02-13T22:11:41.847Z,97789.00
2023-02-13T22:14:13.735Z,97784.53
2023-02-13T22:16:42.777Z,97784.13
2023-02-13T22:19:14.333Z,97781.72
2023-02-13T22:21:42.118Z,97767.75
2023-02-13T22:24:09.947Z,97776.97
2023-02-13T22:26:40.143Z,97782.84
2023-02-13T22:29:10.495Z,97778.94
2023-02-13T22:31:38.502Z,97782.31
2023-02-13T22:34:06.797Z,97790.16
2023-02-13T22:36:39.410Z,97791.88
2023-02-13T22:39:08.811Z,97795.00
2023-02-13T22:41:36.585Z,97787.34
2023-02-13T22:44:04.519Z,97792.03
2023-02-13T22:46:33.798Z,97794.22
2023-02-13T22:49:02.012Z,97791.19
2023-02-13T22:51:35.756Z,97790.16
2023-02-13T22:54:04.463Z,97797.84
2023-02-13T22:56:32.721Z,97795.38
2023-02-13T22:59:00.642Z,97794.72
2023-02-13T23:01:29.308Z,97804.19
2023-02-13T23:03:57.736Z,97799.38
2023-02-13T23:06:25.958Z,97815.06
2023-02-13T23:08:53.962Z,97810.69
2023-02-13T23:11:46.189Z,97809.53
2023-02-13T23:14:14.848Z,97816.00
2023-02-13T23:17:01.976Z,97817.78
2023-02-13T23:19:30.274Z,97823.75
2023-02-13T23:21:58.386Z,97826.13
2023-02-13T23:24:26.070Z,97820.97
2023-02-13T23:26:53.611Z,97815.19
2023-02-13T23:29:21.703Z,97824.78
2023-02-13T23:31:49.514Z,97822.31
2023-02-13T23:34:17.268Z,97827.59
2023-02-13T23:36:44.866Z,97822.94
2023-02-13T23:39:12.525Z,97828.41
2023-02-13T23:41:40.116Z,97831.97
2023-02-13T23:44:07.857Z,97835.09
2023-02-13T23:46:35.462Z,97835.03
2023-02-13T23:49:03.069Z,97835.81
2023-02-13T23:51:30.702Z,97829.06
2023-02-13T23:53:58.330Z,97826.44
2023-02-13T23:56:26.377Z,97844.28
2023-02-13T23:58:56.003Z,97840.66
